Latest Coastal Weather Observations for Cape Moreton

IDQ60701

Issued at 9:42 am EST Friday 30 September 2016 (issued every 10 minutes, with the page automatically refreshed every 10 minutes)

About coastal observations | Map of coastal stations | Coastal observations for QLD | Marine services | Other Formats
Station Details ID: 040043 Name: CAPE MORETON LIGHTHOUSE Lat: -27.03 Lon: 153.47 Height: 99.9 m
Data from the previous 72 hours. | See also: Recent months at Cape Moreton
Date/Time
EST
Temp
°C
Wind Pressure Rain since
9am
mm
Weather Cloud Vis
km
Sea
Height
m
Swell
Dir  Spd
kts
Gust
kts
hPa Trend Height
m
Period
s
Dir
30/09:30am 20.4 W 15 22 1006.7 - 0.0 - - - - - - -
30/09:00am 20.5 W 13 23 1006.9 - 5.0 - - - - - - -
30/08:30am 20.2 W 15 21 1006.8 - 5.0 - - - - - - -
30/08:00am 20.3 W 13 20 1006.9 - 5.0 - - - - - - -
30/07:30am 20.4 W 12 16 1006.8 - 5.0 - - - - - - -
30/07:00am 20.0 W 9 13 1006.4 - 5.0 - - - - - - -
30/06:30am 19.3 WNW 9 11 1006.3 - 5.0 - - - - - - -
30/06:00am 18.9 W 9 12 1005.9 - 5.0 - - - - - - -
30/05:30am 19.1 WNW 10 13 1005.7 - 5.0 - - - - - - -
30/05:00am 19.3 WNW 14 19 1005.7 - 5.0 - - - - - - -
30/04:30am 19.5 WNW 16 22 1005.5 - 5.0 - - - - - - -
30/04:26am 19.8 NW 17 27 1005.5 - 5.0 - - - - - - -
30/04:00am 20.2 NNW 24 35 1004.8 - 5.0 - - - - - - -
30/03:30am 20.5 N 28 39 1004.4 - 5.0 - - - - - - -
30/03:02am 20.6 NNW 23 33 1004.8 - 5.0 - - - - - - -
30/03:00am 20.6 NNW 24 33 1005.0 - 5.0 - - - - - - -
30/02:45am 20.5 NNW 22 32 1005.3 - 5.0 - - - - - - -
30/02:30am 20.5 N 27 35 1004.8 - 5.0 - - - - - - -
30/02:00am 20.6 N 28 34 1005.1 - 5.0 - - - - - - -
30/01:30am 20.7 N 26 34 1005.6 - 5.0 - - - - - - -
30/01:00am 20.6 N 25 35 1006.0 - 5.0 - - - - - - -
30/12:55am 20.6 N 24 35 1006.1 - 5.0 - - - - - - -
30/12:30am 20.5 N 24 33 1006.4 - 5.0 - - - - - - -
30/12:16am 20.5 NNW 23 33 1006.5 - 5.0 - - - - - - -
30/12:00am 20.4 NNW 22 30 1006.8 - 5.0 - - - - - - -
 
Date/Time
EST
Temp
°C
Wind Pressure Rain since
9am
mm
Weather Cloud Vis
km
Sea
Height
m
Swell
Dir  Spd
kts
Gust
kts
hPa Trend Height
m
Period
s
Dir
29/11:30pm 20.4 NNW 19 29 1007.3 - 5.0 - - - - - - -
29/11:00pm 20.5 NNW 23 35 1007.3 - 5.0 - - - - - - -
29/10:53pm 20.3 NNW 24 35 1007.2 - 5.0 - - - - - - -
29/10:30pm 20.2 NNW 24 33 1007.2 - 5.0 - - - - - - -
29/10:29pm 20.2 NNW 24 34 1007.2 - 5.0 - - - - - - -
29/10:00pm 19.8 NNW 25 33 1007.4 - 5.0 - - - - - - -
29/09:30pm 19.2 N 23 32 1007.8 - 4.8 - - - - - - -
29/09:24pm 18.9 N 21 32 1007.9 - 4.8 - - - - - - -
29/09:00pm 18.2 NNW 21 27 1008.2 - 4.8 Recent precip. - - - - - -
29/08:30pm 17.9 NW 20 28 1008.5 - 4.8 - - - - - - -
29/08:00pm 18.0 NNW 22 32 1008.3 - 3.8 - - - - - - -
29/07:30pm 18.7 NNW 23 35 1007.9 - 3.8 - - - - - - -
29/07:04pm 18.5 NNW 19 29 1008.1 - 3.2 - - - - - - -
29/07:00pm 18.9 NNW 20 29 1007.9 - 3.2 - - - - - - -
29/06:39pm 19.2 NNW 19 29 1007.8 - 3.2 - - - - - - -
29/06:30pm 19.1 NNW 20 29 1007.6 - 3.2 - - - - - - -
29/06:00pm 19.2 NNW 20 30 1007.3 - 3.2 - - - - - - -
29/05:39pm 19.6 NNW 19 29 1007.0 - 3.2 - - - - - - -
29/05:30pm 19.7 NNW 18 26 1007.0 - 3.2 - - - - - - -
29/05:18pm 19.8 NNW 17 27 1007.1 - 3.2 - - - - - - -
29/05:00pm 19.6 NW 15 22 1007.1 - 3.2 - - - - - - -
29/04:30pm 18.6 WNW 11 13 1007.1 - 3.0 - - - - - - -
29/04:00pm 19.5 NW 11 15 1006.8 - 1.6 - - - - - - -
29/03:30pm 19.3 NW 13 18 1006.5 - 1.6 - - - - - - -
29/03:00pm 20.1 NNW 17 24 1006.7 - 0.6 Recent precip. - - - - - -
29/02:30pm 20.4 NNW 17 23 1006.7 - 0.6 - - - - - - -
29/02:00pm 20.3 N 19 24 1006.8 - 0.4 - - - - - - -
29/01:30pm 20.2 NNW 16 21 1007.8 - 0.4 - - - - - - -
29/01:00pm 20.3 NNW 18 24 1008.0 - 0.0 - - - - - - -
29/12:30pm 21.2 NNW 22 28 1008.1 - 0.0 - - - - - - -
29/12:00pm 21.1 NNW 17 24 1008.7 - 0.0 - - - - - - -
29/11:30am 21.7 NNW 14 19 1009.0 - 0.0 - - - - - - -
29/11:00am 23.0 NNW 12 17 1008.8 - 0.0 - - - - - - -
29/10:30am 22.2 NNW 14 19 1009.4 - 0.0 - - - - - - -
29/10:00am 21.5 NNW 15 21 1009.8 - 0.0 - - - - - - -
29/09:30am 21.5 NNW 16 23 1010.0 - 0.0 - - - - - - -
29/09:00am 21.2 NNW 16 23 1010.0 - 0.0 - - - - - - -
29/08:30am 20.9 NNW 19 25 1009.8 - 0.0 - - - - - - -
29/08:00am 21.1 NNW 16 23 1010.1 - 0.0 - - - - - - -
29/07:30am 21.0 NNW 19 24 1009.8 - 0.0 - - - - - - -
29/07:00am 20.8 NNW 16 22 1010.2 - 0.0 - - - - - - -
29/06:30am 20.6 N 17 23 1009.7 - 0.0 - - - - - - -
29/06:00am 20.6 N 17 21 1009.6 - 0.0 - - - - - - -
29/05:30am 20.5 NNW 16 22 1009.4 - 0.0 - - - - - - -
29/05:00am 20.5 NNW 17 22 1009.4 - 0.0 - - - - - - -
29/04:30am 20.4 NNW 16 22 1009.5 - 0.0 - - - - - - -
29/04:00am 20.4 NNW 16 21 1009.5 - 0.0 - - - - - - -
29/03:30am 20.4 NNW 14 19 1009.7 - 0.0 - - - - - - -
29/03:00am 20.3 NNW 12 17 1009.9 - 0.0 - - - - - - -
29/02:30am 20.1 NNW 10 14 1010.0 - 0.0 - - - - - - -
29/02:00am 20.4 NNW 13 16 1010.3 - 0.0 - - - - - - -
29/01:30am 20.6 N 13 16 1010.8 - 0.0 - - - - - - -
29/01:00am 20.6 N 13 16 1011.2 - 0.0 - - - - - - -
29/12:30am 20.5 N 11 13 1011.8 - 0.0 - - - - - - -
29/12:00am 20.2 N 9 12 1012.0 - 0.0 - - - - - - -
 
Date/Time
EST
Temp
°C
Wind Pressure Rain since
9am
mm
Weather Cloud Vis
km
Sea
Height
m
Swell
Dir  Spd
kts
Gust
kts
hPa Trend Height
m
Period
s
Dir
28/11:30pm 20.4 NNE 12 16 1012.3 - 0.0 - - - - - - -
28/11:00pm 20.3 NNE 13 16 1012.3 - 0.0 - - - - - - -
28/10:30pm 20.3 NNE 13 16 1012.6 - 0.0 - - - - - - -
28/10:00pm 20.0 NNE 13 17 1012.7 - 0.0 - - - - - - -
28/09:30pm 20.0 NNE 13 17 1013.0 - 0.0 - - - - - - -
28/09:00pm 20.1 NNE 13 16 1012.9 - 0.0 - - - - - - -
28/08:30pm 19.9 NE 13 17 1012.6 - 0.0 - - - - - - -
28/08:00pm 20.0 ENE 15 19 1012.2 - 0.0 - - - - - - -
28/07:30pm 19.9 ENE 17 19 1012.2 - 0.0 - - - - - - -
28/07:00pm 20.0 ENE 15 17 1012.2 - 0.0 - - - - - - -
28/06:30pm 19.8 ENE 15 19 1012.0 - 0.0 - - - - - - -
28/06:00pm 20.0 ENE 16 19 1011.7 - 0.0 - - - - - - -
28/05:30pm 20.1 ENE 18 20 1011.5 - 0.0 - - - - - - -
28/05:00pm 20.2 ENE 18 21 1011.4 - 0.0 - - - - - - -
28/04:30pm 20.6 ENE 19 21 1010.7 - 0.0 - - - - - - -
28/04:00pm 20.9 ENE 14 17 1010.6 - 0.0 - - - - - - -
28/03:30pm 21.2 ENE 12 13 1010.6 - 0.0 - - - - - - -
28/03:00pm 21.5 E 14 16 1010.7 - 0.0 - - - - - - -
28/02:30pm 21.6 ESE 14 15 1011.0 - 0.0 - - - - - - -
28/02:00pm 22.1 ESE 13 15 1011.4 - 0.0 - - - - - - -
28/01:30pm 22.2 ESE 12 14 1011.9 - 0.0 - - - - - - -
28/01:00pm 22.9 ESE 14 16 1012.1 - 0.0 - - - - - - -
28/12:30pm 22.5 ESE 14 16 1012.4 - 0.0 - - - - - - -
28/12:00pm 23.2 SE 12 15 1012.9 - 0.0 - - - - - - -
28/11:30am 23.7 SE 12 14 1013.4 - 0.0 - - - - - - -
28/11:00am 24.4 SE 10 11 1013.8 - 0.0 - - - - - - -
28/10:30am 24.7 SE 9 11 1014.0 - 0.0 - - - - - - -
28/10:00am 24.4 SE 9 11 1013.9 - 0.0 - - - - - - -
28/09:30am 24.9 SE 7 10 1014.0 - 0.0 - - - - - - -
28/09:00am 22.9 SSW 6 9 1014.0 - 0.0 - - - - - - -
28/08:30am 21.8 WSW 7 10 1014.1 - 0.0 - - - - - - -
28/08:00am 20.6 WSW 9 13 1013.9 - 0.0 - - - - - - -
28/07:30am 19.7 WSW 9 11 1013.6 - 0.0 - - - - - - -
28/07:00am 18.4 WSW 10 13 1013.2 - 0.0 - - - - - - -
28/06:30am 17.7 WSW 11 13 1012.8 - 0.0 - - - - - - -
28/06:00am 16.8 WSW 12 13 1012.3 - 0.0 - - - - - - -
28/05:30am 16.9 WSW 13 15 1012.0 - 0.0 - - - - - - -
28/05:00am 17.0 WSW 13 15 1011.6 - 0.0 - - - - - - -
28/04:30am 17.3 W 13 17 1011.3 - 0.0 - - - - - - -
28/04:00am 17.3 WSW 13 16 1011.2 - 0.0 - - - - - - -
28/03:30am 17.5 W 12 15 1011.0 - 0.0 - - - - - - -
28/03:00am 17.8 W 13 16 1010.9 - 0.0 - - - - - - -
28/02:30am 17.8 W 13 16 1011.1 - 0.0 - - - - - - -
28/02:00am 18.4 WNW 12 13 1011.4 - 0.0 - - - - - - -
28/01:30am 18.4 WNW 12 13 1011.4 - 0.0 - - - - - - -
28/01:00am 18.5 WNW 12 13 1011.6 - 0.0 - - - - - - -
28/12:30am 18.8 W 11 12 1012.0 - 0.0 - - - - - - -
28/12:00am 18.7 W 11 13 1012.2 - 0.0 - - - - - - -
 
Date/Time
EST
Temp
°C
Wind Pressure Rain since
9am
mm
Weather Cloud Vis
km
Sea
Height
m
Swell
Dir  Spd
kts
Gust
kts
hPa Trend Height
m
Period
s
Dir
27/11:30pm 18.8 W 11 13 1012.2 - 0.0 - - - - - - -
27/11:00pm 18.8 W 11 12 1012.4 - 0.0 - - - - - - -
27/10:30pm 19.0 W 11 13 1012.5 - 0.0 - - - - - - -
27/10:00pm 19.4 WNW 10 13 1012.7 - 0.0 - - - - - - -
27/09:30pm 19.5 NW 11 14 1012.7 - 0.0 - - - - - - -
27/09:00pm 19.6 NW 11 15 1012.9 - 0.0 - - - - - - -
27/08:30pm 19.6 NNW 12 15 1012.9 - 0.0 - - - - - - -
27/08:00pm 19.7 NNW 11 15 1012.7 - 0.0 - - - - - - -
27/07:30pm 19.5 N 12 15 1012.5 - 0.0 - - - - - - -
27/07:00pm 19.2 N 9 12 1012.4 - 0.0 - - - - - - -
27/06:30pm 19.0 NNE 10 13 1011.9 - 0.0 - - - - - - -
27/06:00pm 19.0 NNE 11 14 1011.6 - 0.0 - - - - - - -
27/05:30pm 19.0 NE 11 14 1011.3 - 0.0 - - - - - - -
27/05:00pm 19.2 NE 10 13 1011.1 - 0.0 - - - - - - -
27/04:30pm 19.1 NE 11 13 1011.1 - 0.0 - - - - - - -
27/04:00pm 19.2 NE 10 13 1011.1 - 0.0 - - - - - - -
27/03:30pm 19.5 NE 8 10 1011.1 - 0.0 - - - - - - -
27/03:00pm 20.0 ENE 7 9 1011.7 - 0.0 - - - - - - -
27/02:30pm 20.6 ENE 7 10 1011.5 - 0.0 - - - - - - -
27/02:00pm 20.8 ENE 7 8 1012.2 - 0.0 - - - - - - -
27/01:30pm 21.4 SE 8 9 1012.5 - 0.0 - - - - - - -
27/01:00pm 20.9 SE 9 11 1012.9 - 0.0 - - - - - - -
27/12:30pm 21.1 SE 9 13 1012.9 - 0.0 - - - - - - -
27/12:00pm 20.8 SSE 9 13 1013.2 - 0.0 - - - - - - -
27/11:30am 21.0 SSE 8 14 1013.7 - 0.0 - - - - - - -
27/11:00am 21.1 SSW 9 16 1014.0 - 0.0 - - - - - - -
27/10:30am 19.0 SSW 13 18 1014.2 - 0.0 - - - - - - -
27/10:00am 19.2 SW 13 19 1014.2 - 0.0 - - - - - - -

Other Formats:

Comma delimited format used in spreadsheet applications
http://www.bom.gov.au/fwo/IDQ60701/IDQ60701.94594.axf

JavaScript Object Notation format (JSON) in row-major order
http://www.bom.gov.au/fwo/IDQ60701/IDQ60701.94594.json